KMRJ

Iowa County Airport

Mineral Point, Wisconsin, USA
METAR KMRJ 201955Z AUTO 09009KT 4SM +RA BKN010 BKN015 OVC022 21/21 A2983 RMK AO2 P0008
Observed Flight Rules
Aug-20 @ 19:55 UTC (35 minutes ago) Marginal Visual Flight Rules
Wind Visibility Clouds Conditions
90° at 9 knots 4 miles
  • Broken at 1,000' AGL
  • Broken at 1,500' AGL
  • Overcast at 2,200' AGL
  • Heavy Rain
Temperatures Readings Precipitation
Current 21°C / 70°F
Dewpoint 21°C / 70°F
Humidity 100%
Altimeter 29.83" Hg
Pressure 1010 hPa
Elevation 359
Current Rain 0.08
METAR KMRJ 201955Z AUTO 09009KT 4SM +RA BKN010 BKN015 OVC022 21/21 A2983 RMK AO2 P0008
Observed Flight Rules
Aug-20 @ 19:55 UTC
(35 minutes ago)
MVFR
Wind Visibility
90° at 9 knots 4 miles
Clouds
  • Broken at 1,000' AGL
  • Broken at 1,500' AGL
  • Overcast at 2,200' AGL
Conditions
  • Heavy Rain
Temperature Dewpoint
21°C / 70°F 21°C / 70°F
Humidity Altimeter Pressure
100% 29.83" Hg 1010 hPa
Current Rain
0.08